Time;durP1;ratioP1;P1;durP2;ratioP2;P2;SDS_P1;SDS_P2;PMS_P1;PMS_P2;Temp;Humidity;BMP_temperature;BMP_pressure;BME280_temperature;BME280_humidity;BME280_pressure;Samples;Min_cycle;Max_cycle;Signal;HPM_P1;HPM_P2
2024/03/26 00:00:40;;;;;;;3.00;1.90;;;;;;;5.00;100.00;99464.55;110990;1233;72761;-65
2024/03/26 00:03:07;;;;;;;3.90;1.80;;;;;;;4.99;100.00;99464.45;111054;1234;62490;-64
2024/03/26 00:05:34;;;;;;;4.10;2.00;;;;;;;5.00;100.00;99462.23;111112;1234;60739;-65
2024/03/26 00:08:01;;;;;;;4.10;1.70;;;;;;;4.99;100.00;99460.95;110992;1234;75063;-66
2024/03/26 00:10:28;;;;;;;3.50;1.80;;;;;;;4.98;100.00;99458.20;110826;1233;72953;-66
2024/03/26 00:12:55;;;;;;;3.30;1.70;;;;;;;4.98;100.00;99457.70;111015;1236;72006;-66
2024/03/26 00:15:22;;;;;;;3.30;1.80;;;;;;;4.96;100.00;99459.44;111069;1235;61872;-66
2024/03/26 00:17:49;;;;;;;5.60;2.00;;;;;;;4.97;100.00;99462.73;110856;1235;61732;-66
2024/03/26 00:20:16;;;;;;;3.20;1.90;;;;;;;4.98;100.00;99464.23;111044;1234;75278;-65
2024/03/26 00:22:43;;;;;;;4.10;1.80;;;;;;;4.99;100.00;99470.90;111043;1235;71337;-65
2024/03/26 00:25:09;;;;;;;3.50;1.80;;;;;;;5.00;100.00;99472.98;111037;1233;72647;-66
2024/03/26 00:27:36;;;;;;;3.50;1.80;;;;;;;4.99;100.00;99472.23;111022;1234;62017;-65
2024/03/26 00:30:05;;;;;;;3.10;1.70;;;;;;;4.98;100.00;99471.70;111060;1233;61875;-64
2024/03/26 00:32:33;;;;;;;3.40;1.70;;;;;;;4.98;100.00;99469.41;111038;1237;75431;-66
2024/03/26 00:35:00;;;;;;;3.70;2.40;;;;;;;4.99;100.00;99472.80;110968;1237;72949;-65
2024/03/26 00:37:26;;;;;;;3.60;1.80;;;;;;;5.01;100.00;99469.70;111076;1235;70972;-64
2024/03/26 00:39:53;;;;;;;3.00;1.70;;;;;;;5.00;100.00;99470.86;111091;1232;61997;-65
2024/03/26 00:42:20;;;;;;;3.30;1.80;;;;;;;4.99;100.00;99468.32;111049;1234;61139;-64
2024/03/26 00:44:47;;;;;;;4.10;1.90;;;;;;;5.01;100.00;99470.92;111058;1234;74143;-65
2024/03/26 00:47:14;;;;;;;4.00;2.20;;;;;;;5.01;100.00;99467.82;111064;1234;72638;-64
2024/03/26 00:49:41;;;;;;;3.60;2.00;;;;;;;5.02;100.00;99468.66;111036;1234;72364;-64
2024/03/26 00:52:08;;;;;;;3.90;2.30;;;;;;;4.99;100.00;99464.08;111064;1233;62186;-66
2024/03/26 00:54:35;;;;;;;3.20;1.90;;;;;;;4.99;100.00;99465.55;110975;1234;59937;-65
2024/03/26 00:57:02;;;;;;;4.40;2.30;;;;;;;4.98;100.00;99459.98;111017;1237;74699;-65
2024/03/26 00:59:29;;;;;;;2.70;1.70;;;;;;;4.99;100.00;99459.48;111038;1233;72498;-66
2024/03/26 01:01:59;;;;;;;3.70;1.80;;;;;;;5.01;100.00;99458.59;111042;1235;71940;-64
2024/03/26 01:04:25;;;;;;;2.70;1.60;;;;;;;5.01;100.00;99461.20;111016;1234;62013;-65
2024/03/26 01:06:52;;;;;;;2.60;1.60;;;;;;;5.00;100.00;99462.77;111030;1233;62134;-64
2024/03/26 01:09:19;;;;;;;2.80;1.70;;;;;;;4.99;100.00;99465.45;110988;1234;76233;-64
2024/03/26 01:11:46;;;;;;;2.70;1.70;;;;;;;4.99;100.00;99465.70;110799;1235;72992;-65
2024/03/26 01:14:13;;;;;;;2.80;1.50;;;;;;;5.00;100.00;99466.38;111003;1236;72546;-65
2024/03/26 01:16:40;;;;;;;3.00;1.60;;;;;;;5.02;100.00;99466.86;111006;1233;62030;-66
2024/03/26 01:19:07;;;;;;;3.50;1.60;;;;;;;5.03;100.00;99468.88;111018;1234;61961;-67
2024/03/26 01:21:33;;;;;;;2.90;1.70;;;;;;;5.02;100.00;99470.09;110802;1234;413422;-66
2024/03/26 01:24:00;;;;;;;3.90;1.80;;;;;;;5.01;100.00;99471.51;111067;1235;72463;-66
2024/03/26 01:26:27;;;;;;;2.60;1.50;;;;;;;5.00;100.00;99469.55;111069;1236;72550;-65
2024/03/26 01:28:54;;;;;;;5.20;2.10;;;;;;;5.01;100.00;99467.80;111033;1234;61882;-65
2024/03/26 01:31:21;;;;;;;3.80;1.90;;;;;;;5.00;100.00;99473.31;111030;1236;61924;-64
2024/03/26 01:33:48;;;;;;;2.70;1.40;;;;;;;5.00;100.00;99472.65;111016;1234;74684;-65
2024/03/26 01:36:15;;;;;;;3.50;1.60;;;;;;;5.01;100.00;99472.84;111020;1234;72367;-65
2024/03/26 01:38:43;;;;;;;3.70;1.90;;;;;;;5.02;100.00;99476.08;111024;1234;71251;-64
2024/03/26 01:41:10;;;;;;;2.30;1.30;;;;;;;5.01;100.00;99472.98;111049;1234;59924;-65
2024/03/26 01:43:36;;;;;;;2.70;1.40;;;;;;;4.99;100.00;99476.41;111016;1234;61920;-65
2024/03/26 01:46:04;;;;;;;2.80;1.70;;;;;;;4.96;100.00;99476.84;111040;1235;75300;-65
2024/03/26 01:48:31;;;;;;;2.30;1.40;;;;;;;4.95;100.00;99479.75;111064;1235;72409;-67
2024/03/26 01:50:58;;;;;;;2.70;1.30;;;;;;;4.95;100.00;99483.29;111044;1236;71812;-65
2024/03/26 01:53:25;;;;;;;3.30;1.80;;;;;;;4.94;100.00;99485.39;110842;1234;61902;-64
2024/03/26 01:55:54;;;;;;;2.60;1.40;;;;;;;4.95;100.00;99489.02;111033;1233;62122;-64
2024/03/26 01:58:26;;;;;;;2.80;1.50;;;;;;;4.95;100.00;99487.90;111073;1236;75202;-66
2024/03/26 02:00:54;;;;;;;3.20;1.70;;;;;;;4.95;100.00;99493.19;110847;1239;71281;-64
2024/03/26 02:03:21;;;;;;;3.50;1.80;;;;;;;4.94;100.00;99488.00;111049;1232;72131;-65
2024/03/26 02:05:47;;;;;;;3.70;1.80;;;;;;;4.93;100.00;99483.05;111084;1235;61908;-65
2024/03/26 02:08:15;;;;;;;3.70;1.90;;;;;;;4.92;100.00;99486.59;111016;1234;62025;-63
2024/03/26 02:10:42;;;;;;;3.90;1.90;;;;;;;4.92;100.00;99489.03;111024;1233;75127;-64
2024/03/26 02:13:09;;;;;;;3.40;1.70;;;;;;;4.93;100.00;99487.16;111068;1233;71433;-65
2024/03/26 02:15:35;;;;;;;3.30;1.80;;;;;;;4.93;100.00;99487.48;111024;1235;72839;-64
2024/03/26 02:18:03;;;;;;;2.70;1.60;;;;;;;4.92;100.00;99483.84;111017;1234;62011;-65
2024/03/26 02:20:29;;;;;;;2.90;1.60;;;;;;;4.93;100.00;99485.28;111072;1233;61966;-64
2024/03/26 02:22:56;;;;;;;3.20;1.80;;;;;;;4.94;100.00;99489.10;111031;1233;75290;-64
2024/03/26 02:25:23;;;;;;;4.90;2.20;;;;;;;4.94;100.00;99497.41;111046;1236;71343;-65
2024/03/26 02:27:50;;;;;;;2.80;1.80;;;;;;;4.93;100.00;99495.23;111035;1234;72649;-66
2024/03/26 02:30:17;;;;;;;3.00;1.70;;;;;;;4.94;100.00;99499.11;111111;1233;62053;-64
2024/03/26 02:32:44;;;;;;;3.30;1.60;;;;;;;4.96;100.00;99502.39;111020;1235;61907;-63
2024/03/26 02:35:11;;;;;;;4.30;2.10;;;;;;;4.95;100.00;99506.90;111071;1236;75270;-65
2024/03/26 02:37:37;;;;;;;3.40;1.90;;;;;;;4.97;100.00;99515.96;111038;1235;72538;-65
2024/03/26 02:40:05;;;;;;;2.50;1.60;;;;;;;4.99;100.00;99516.52;110972;1234;73516;-65
2024/03/26 02:42:32;;;;;;;4.50;2.00;;;;;;;5.00;100.00;99519.35;111003;1233;62006;-65
2024/03/26 02:44:59;;;;;;;3.50;1.90;;;;;;;4.99;100.00;99517.37;111038;1235;61894;-64
2024/03/26 02:47:26;;;;;;;3.50;1.80;;;;;;;4.99;100.00;99522.81;110880;1237;75771;-65
2024/03/26 02:49:53;;;;;;;4.90;2.00;;;;;;;4.96;100.00;99526.55;110996;1235;73217;-64
2024/03/26 02:52:20;;;;;;;2.80;1.60;;;;;;;4.93;100.00;99529.41;111015;1233;72662;-65
2024/03/26 02:54:47;;;;;;;4.90;1.80;;;;;;;4.94;100.00;99527.05;110998;1233;62561;-65
2024/03/26 02:57:14;;;;;;;3.30;1.70;;;;;;;4.94;100.00;99532.45;111015;1237;62551;-63
2024/03/26 02:59:41;;;;;;;3.50;1.90;;;;;;;4.93;100.00;99539.11;111027;1235;75221;-64
2024/03/26 03:02:07;;;;;;;3.20;1.80;;;;;;;4.91;100.00;99542.26;111000;1233;72550;-63
2024/03/26 03:04:34;;;;;;;2.90;1.50;;;;;;;4.91;100.00;99543.90;111033;1235;72972;-63
2024/03/26 03:07:01;;;;;;;3.70;1.60;;;;;;;4.92;100.00;99546.02;111036;1236;61885;-63
2024/03/26 03:09:29;;;;;;;2.90;1.50;;;;;;;4.93;100.00;99550.75;111042;1234;62071;-63
2024/03/26 03:11:56;;;;;;;3.20;1.80;;;;;;;4.96;100.00;99551.95;111029;1235;74199;-64
2024/03/26 03:14:23;;;;;;;3.00;1.50;;;;;;;4.99;100.00;99559.87;111040;1233;71834;-69
2024/03/26 03:16:50;;;;;;;3.90;1.90;;;;;;;4.99;100.00;99562.30;110863;1235;73015;-65
2024/03/26 03:19:16;;;;;;;3.40;1.60;;;;;;;5.22;100.00;99565.30;110970;1235;62032;-68
2024/03/26 03:21:43;;;;;;;2.40;1.50;;;;;;;5.43;100.00;99567.73;111070;1235;62029;-65
2024/03/26 03:24:10;;;;;;;2.70;1.50;;;;;;;5.47;100.00;99570.84;111057;1234;75982;-65
2024/03/26 03:26:37;;;;;;;3.40;1.50;;;;;;;5.48;100.00;99573.77;111049;1236;72772;-64
2024/03/26 03:29:04;;;;;;;3.00;1.40;;;;;;;5.48;100.00;99573.08;111016;1233;71343;-64
2024/03/26 03:31:32;;;;;;;2.80;1.50;;;;;;;5.49;100.00;99574.48;111029;1237;61911;-65
2024/03/26 03:33:59;;;;;;;2.80;1.40;;;;;;;5.50;100.00;99581.80;111069;1235;63645;-65
2024/03/26 03:36:26;;;;;;;4.60;1.40;;;;;;;5.43;100.00;99583.36;111075;1237;76020;-65
2024/03/26 03:38:52;;;;;;;3.00;1.50;;;;;;;5.18;100.00;99584.84;111077;1237;73035;-67
2024/03/26 03:41:19;;;;;;;2.20;1.20;;;;;;;4.84;100.00;99591.94;111048;1235;72892;-63
2024/03/26 03:43:46;;;;;;;2.90;1.40;;;;;;;4.76;100.00;99597.70;111049;1233;62033;-64
2024/03/26 03:46:13;;;;;;;2.70;1.20;;;;;;;4.74;100.00;99602.05;111054;1235;60852;-64
2024/03/26 03:48:40;;;;;;;3.80;1.50;;;;;;;4.73;100.00;99599.08;111037;1236;75470;-65
2024/03/26 03:51:07;;;;;;;3.70;1.30;;;;;;;4.74;100.00;99600.80;111038;1236;73525;-64
2024/03/26 03:53:34;;;;;;;2.00;1.00;;;;;;;4.79;100.00;99599.60;111023;1235;71250;-64
2024/03/26 03:56:00;;;;;;;2.70;1.20;;;;;;;4.81;100.00;99600.58;111032;1233;62095;-63
2024/03/26 03:58:28;;;;;;;3.20;1.20;;;;;;;4.81;100.00;99607.08;111010;1235;61974;-65
2024/03/26 04:00:54;;;;;;;3.10;1.30;;;;;;;4.81;100.00;99615.30;111035;1235;74770;-63
2024/03/26 04:03:21;;;;;;;2.10;1.10;;;;;;;4.83;100.00;99623.20;111037;1234;72642;-63
2024/03/26 04:05:48;;;;;;;2.00;1.20;;;;;;;4.84;100.00;99630.69;111017;1235;72404;-63
2024/03/26 04:08:15;;;;;;;2.60;1.40;;;;;;;4.86;100.00;99629.59;110960;1232;62025;-63
2024/03/26 04:10:43;;;;;;;2.90;1.10;;;;;;;4.88;100.00;99629.21;111045;1235;61881;-64
2024/03/26 04:13:10;;;;;;;2.50;1.30;;;;;;;4.90;100.00;99629.48;110998;1235;75943;-64
2024/03/26 04:15:40;;;;;;;3.20;1.30;;;;;;;4.88;100.00;99628.36;111056;1234;72444;-65
2024/03/26 04:18:07;;;;;;;3.40;1.00;;;;;;;4.88;100.00;99632.96;111042;1235;72392;-65
2024/03/26 04:20:34;;;;;;;3.50;1.40;;;;;;;4.89;100.00;99641.65;111057;1234;61787;-65
2024/03/26 04:23:01;;;;;;;2.20;1.00;;;;;;;4.90;100.00;99644.83;111049;1235;61972;-65
2024/03/26 04:25:28;;;;;;;4.00;1.40;;;;;;;4.91;100.00;99651.16;111025;1235;73985;-64
2024/03/26 04:27:55;;;;;;;2.70;1.20;;;;;;;4.91;100.00;99654.34;111022;1235;72251;-65
2024/03/26 04:30:22;;;;;;;2.20;0.90;;;;;;;4.90;100.00;99656.60;111057;1235;71580;-64
2024/03/26 04:32:49;;;;;;;2.50;1.00;;;;;;;4.90;100.00;99665.02;111025;1236;61092;-64
2024/03/26 04:35:16;;;;;;;2.40;1.10;;;;;;;4.91;100.00;99667.69;111092;1235;62029;-64
2024/03/26 04:37:43;;;;;;;2.10;1.00;;;;;;;4.92;100.00;99673.61;111034;1232;75405;-65
2024/03/26 04:40:10;;;;;;;2.60;1.10;;;;;;;4.93;100.00;99677.97;111065;1236;71245;-63
2024/03/26 04:42:37;;;;;;;2.10;1.00;;;;;;;4.95;100.00;99680.13;111138;1235;71231;-68
2024/03/26 04:45:05;;;;;;;2.10;1.10;;;;;;;4.99;100.00;99682.40;111038;1234;61999;-64
2024/03/26 04:47:34;;;;;;;2.60;1.20;;;;;;;5.02;100.00;99687.27;111070;1235;62016;-63
2024/03/26 04:50:01;;;;;;;2.70;1.40;;;;;;;5.03;100.00;99687.46;111039;1235;75405;-63
2024/03/26 04:52:29;;;;;;;4.10;1.30;;;;;;;5.02;100.00;99687.48;111067;1235;72488;-63
2024/03/26 04:54:55;;;;;;;2.80;1.10;;;;;;;5.05;100.00;99692.07;111026;1235;73240;-66
2024/03/26 04:57:22;;;;;;;2.70;1.20;;;;;;;5.06;100.00;99696.06;111053;1235;62025;-67
2024/03/26 04:59:49;;;;;;;2.80;1.20;;;;;;;5.07;100.00;99702.66;111064;1234;62013;-65
2024/03/26 05:02:16;;;;;;;2.60;1.30;;;;;;;5.08;100.00;99706.57;111043;1232;75275;-64
2024/03/26 05:04:43;;;;;;;2.60;1.30;;;;;;;5.09;100.00;99704.21;111044;1235;71743;-63
2024/03/26 05:07:10;;;;;;;3.90;1.60;;;;;;;5.10;100.00;99707.92;111026;1234;71522;-65
2024/03/26 05:09:38;;;;;;;3.40;1.50;;;;;;;5.11;100.00;99705.02;110985;1235;62029;-64
2024/03/26 05:12:05;;;;;;;3.70;1.40;;;;;;;5.13;100.00;99712.95;111056;1235;62061;-64
2024/03/26 05:14:31;;;;;;;3.70;1.20;;;;;;;5.16;100.00;99713.63;111052;1237;75058;-63
2024/03/26 05:16:58;;;;;;;2.20;1.10;;;;;;;5.19;100.00;99716.16;111025;1235;72937;-62
2024/03/26 05:19:25;;;;;;;2.70;1.30;;;;;;;5.20;100.00;99717.47;111010;1235;71450;-63
2024/03/26 05:21:52;;;;;;;4.70;2.10;;;;;;;5.22;100.00;99723.46;111053;1234;60336;-63
2024/03/26 05:24:19;;;;;;;3.90;1.70;;;;;;;5.23;100.00;99724.48;111021;1236;61950;-63
2024/03/26 05:26:45;;;;;;;2.40;1.20;;;;;;;5.26;100.00;99730.92;111030;1236;74792;-62
2024/03/26 05:29:17;;;;;;;3.00;1.20;;;;;;;5.27;100.00;99731.02;111010;1235;72948;-63
2024/03/26 05:31:44;;;;;;;2.20;1.10;;;;;;;5.30;100.00;99736.08;111070;1235;72483;-63
2024/03/26 05:34:11;;;;;;;3.70;1.30;;;;;;;5.32;100.00;99739.96;110999;1235;61987;-63
2024/03/26 05:36:38;;;;;;;4.00;1.40;;;;;;;5.35;100.00;99744.67;110979;1235;61956;-64
2024/03/26 05:39:05;;;;;;;3.00;1.30;;;;;;;5.37;100.00;99745.40;110906;1235;74081;-63
2024/03/26 05:41:32;;;;;;;3.10;1.20;;;;;;;5.39;100.00;99751.58;110983;1234;72854;-63
2024/03/26 05:43:58;;;;;;;4.20;1.60;;;;;;;5.41;100.00;99749.85;111109;1235;72965;-64
2024/03/26 05:46:25;;;;;;;4.20;1.60;;;;;;;5.44;100.00;99753.92;111048;1234;61924;-63
2024/03/26 05:48:52;;;;;;;3.10;1.50;;;;;;;5.46;100.00;99752.63;111020;1234;61787;-63
2024/03/26 05:51:19;;;;;;;3.10;1.30;;;;;;;5.48;100.00;99754.92;111045;1233;74616;-63
2024/03/26 05:53:46;;;;;;;3.00;1.50;;;;;;;5.49;100.00;99754.30;110838;1235;71382;-63
2024/03/26 05:56:13;;;;;;;2.50;1.40;;;;;;;5.49;100.00;99759.13;111035;1233;72767;-62
2024/03/26 05:58:40;;;;;;;3.90;1.70;;;;;;;5.52;100.00;99765.05;111006;1235;62019;-65
2024/03/26 06:01:07;;;;;;;3.80;1.90;;;;;;;5.55;100.00;99771.99;110995;1236;62349;-64
2024/03/26 06:03:36;;;;;;;4.30;1.90;;;;;;;5.59;100.00;99774.54;110965;1236;75306;-63
2024/03/26 06:06:03;;;;;;;4.40;1.90;;;;;;;5.60;100.00;99776.11;111010;1235;72891;-66
2024/03/26 06:08:30;;;;;;;4.40;1.80;;;;;;;5.62;100.00;99780.25;111023;1234;72361;-64
2024/03/26 06:10:57;;;;;;;4.70;2.20;;;;;;;5.65;100.00;99782.30;111003;1235;61903;-67
2024/03/26 06:13:24;;;;;;;3.50;1.60;;;;;;;5.68;100.00;99783.67;111025;1235;61899;-66
2024/03/26 06:16:03;;;;;;;4.50;2.00;;;;;;;5.75;100.00;99791.66;110968;1235;75560;-63
2024/03/26 06:18:30;;;;;;;5.10;2.00;;;;;;;5.80;100.00;99788.52;111011;1234;72715;-66
2024/03/26 06:20:57;;;;;;;2.80;1.50;;;;;;;5.81;100.00;99792.96;111058;1236;72232;-64
2024/03/26 06:23:24;;;;;;;2.40;1.30;;;;;;;5.83;100.00;99795.97;110998;1233;60707;-64
2024/03/26 06:25:51;;;;;;;2.90;1.40;;;;;;;5.85;100.00;99793.61;111050;1234;61907;-64
2024/03/26 06:28:19;;;;;;;4.40;1.50;;;;;;;5.88;100.00;99798.52;111038;1235;74327;-64
2024/03/26 06:30:47;;;;;;;5.60;1.50;;;;;;;5.93;100.00;99797.60;111049;1235;72700;-64
2024/03/26 06:33:14;;;;;;;4.10;1.50;;;;;;;5.99;100.00;99802.20;111010;1233;73340;-64
2024/03/26 06:35:42;;;;;;;4.40;2.10;;;;;;;6.03;100.00;99801.13;111064;1234;62032;-65
2024/03/26 06:38:09;;;;;;;4.80;2.00;;;;;;;6.07;100.00;99799.98;111027;1232;61911;-63
2024/03/26 06:40:36;;;;;;;3.50;1.70;;;;;;;6.09;100.00;99801.96;111053;1234;75937;-63
2024/03/26 06:43:05;;;;;;;4.00;1.60;;;;;;;6.14;100.00;99804.15;110997;1234;73446;-63
2024/03/26 06:45:33;;;;;;;3.50;1.80;;;;;;;6.20;100.00;99805.18;111024;1235;71613;-65
2024/03/26 06:48:00;;;;;;;3.30;1.50;;;;;;;6.25;100.00;99807.36;110998;1235;61924;-64
2024/03/26 06:50:27;;;;;;;2.90;1.30;;;;;;;6.29;100.00;99806.66;110957;1235;62070;-64
2024/03/26 06:52:55;;;;;;;3.50;1.40;;;;;;;6.35;100.00;99806.91;111028;1234;74080;-62
2024/03/26 06:55:22;;;;;;;3.30;1.20;;;;;;;6.43;100.00;99809.47;111034;1234;73685;-65
2024/03/26 06:57:49;;;;;;;5.60;1.60;;;;;;;6.46;100.00;99807.77;111019;1233;72543;-62
2024/03/26 07:00:21;;;;;;;3.50;1.40;;;;;;;6.50;100.00;99813.65;111051;1235;61869;-63
2024/03/26 07:02:57;;;;;;;4.30;1.70;;;;;;;6.55;100.00;99813.55;111037;1234;61990;-65
2024/03/26 07:05:42;;;;;;;3.90;1.50;;;;;;;6.62;100.00;99816.32;110804;1235;76600;-64
2024/03/26 07:08:12;;;;;;;3.30;1.50;;;;;;;6.66;100.00;99812.08;110926;1235;71322;-64
2024/03/26 07:10:50;;;;;;;3.60;1.70;;;;;;;6.68;100.00;99816.34;110955;1236;72332;-63
2024/03/26 07:13:33;;;;;;;4.60;1.60;;;;;;;6.72;100.00;99823.61;110887;1233;62006;-63
2024/03/26 07:16:04;;;;;;;3.10;1.60;;;;;;;6.79;100.00;99826.13;110837;1233;61927;-63
2024/03/26 07:18:42;;;;;;;3.50;1.60;;;;;;;6.89;100.00;99829.29;110841;1235;75952;-63
2024/03/26 07:21:27;;;;;;;4.10;1.50;;;;;;;6.96;100.00;99836.85;110935;1235;72672;-62
2024/03/26 07:24:05;;;;;;;3.70;1.30;;;;;;;7.02;100.00;99837.83;110829;1235;73276;-63
2024/03/26 07:26:35;;;;;;;4.20;1.40;;;;;;;7.11;100.00;99842.42;110814;1233;61907;-64
2024/03/26 07:29:02;;;;;;;3.00;1.40;;;;;;;7.20;100.00;99846.96;111045;1234;62011;-63
2024/03/26 07:31:30;;;;;;;4.00;1.60;;;;;;;7.27;100.00;99843.80;110776;1236;75421;-62
2024/03/26 07:33:57;;;;;;;2.80;1.20;;;;;;;7.36;100.00;99851.51;111174;1235;71668;-64
2024/03/26 07:36:24;;;;;;;2.80;1.20;;;;;;;7.44;100.00;99851.89;110830;1233;71364;-62
2024/03/26 07:38:51;;;;;;;3.10;1.20;;;;;;;7.50;100.00;99853.81;110909;1233;62445;-65
2024/03/26 07:41:18;;;;;;;4.60;1.50;;;;;;;7.56;100.00;99850.94;111005;1235;61220;-64
2024/03/26 07:43:45;;;;;;;3.30;1.60;;;;;;;7.64;100.00;99855.41;111016;1235;75660;-66
2024/03/26 07:46:12;;;;;;;4.40;1.40;;;;;;;7.74;98.69;99855.02;111051;1235;72447;-64
2024/03/26 07:48:39;;;;;;;3.30;1.30;;;;;;;7.81;96.08;99853.67;110993;1234;72484;-63
2024/03/26 07:51:06;;;;;;;4.00;1.50;;;;;;;7.87;94.67;99853.43;111037;1234;62278;-63
2024/03/26 07:53:33;;;;;;;3.60;1.30;;;;;;;7.92;93.30;99853.73;111031;1234;61873;-63
2024/03/26 07:56:04;;;;;;;3.00;1.30;;;;;;;7.99;91.28;99854.54;111030;1235;76515;-63
2024/03/26 07:58:31;;;;;;;2.60;1.20;;;;;;;8.02;88.24;99863.69;111086;1234;71719;-62
2024/03/26 08:00:59;;;;;;;3.50;1.50;;;;;;;8.01;86.08;99859.75;111041;1235;73711;-63
2024/03/26 08:03:26;;;;;;;3.60;1.40;;;;;;;8.00;85.52;99865.17;111023;1233;62224;-64
2024/03/26 08:05:53;;;;;;;3.50;1.40;;;;;;;8.06;85.47;99870.95;110999;1235;61863;-64
2024/03/26 08:08:20;;;;;;;4.50;1.50;;;;;;;8.14;84.70;99869.25;111032;1234;75353;-63
2024/03/26 08:10:48;;;;;;;3.50;1.30;;;;;;;8.18;83.10;99866.19;111040;1232;72298;-62
2024/03/26 08:13:15;;;;;;;3.30;1.30;;;;;;;8.22;82.89;99871.10;110960;1234;71386;-63
2024/03/26 08:15:42;;;;;;;3.70;1.40;;;;;;;8.32;82.54;99874.19;110976;1233;62031;-63
2024/03/26 08:18:09;;;;;;;3.90;1.30;;;;;;;8.46;82.49;99877.20;110952;1234;62000;-63
2024/03/26 08:20:40;;;;;;;3.90;1.40;;;;;;;8.58;81.14;99880.45;111015;1233;76535;-63
2024/03/26 08:23:06;;;;;;;2.40;1.20;;;;;;;8.65;78.76;99881.61;110964;1235;73110;-63
2024/03/26 08:25:33;;;;;;;2.90;1.20;;;;;;;8.65;76.50;99881.07;111017;1236;73736;-63
2024/03/26 08:28:01;;;;;;;2.70;1.10;;;;;;;8.62;75.42;99887.34;111012;1234;62023;-64
2024/03/26 08:30:28;;;;;;;2.40;1.00;;;;;;;8.61;75.03;99887.86;110992;1235;61895;-64
2024/03/26 08:32:55;;;;;;;2.80;1.00;;;;;;;8.64;74.76;99887.98;111000;1235;75461;-63
2024/03/26 08:35:22;;;;;;;2.50;1.00;;;;;;;8.65;74.20;99890.11;111039;1235;72854;-65
2024/03/26 08:37:49;;;;;;;2.00;1.10;;;;;;;8.64;73.43;99888.67;110954;1237;72359;-64
2024/03/26 08:40:16;;;;;;;2.00;0.80;;;;;;;8.61;72.84;99893.08;111020;1234;61863;-63
2024/03/26 08:42:44;;;;;;;2.10;0.90;;;;;;;8.62;73.15;99890.42;111067;1234;61909;-64
2024/03/26 08:45:12;;;;;;;3.00;1.00;;;;;;;8.68;73.12;99886.95;111022;1232;74258;-64
2024/03/26 08:47:41;;;;;;;3.00;1.30;;;;;;;8.75;72.52;99881.95;110986;1235;71726;-62
2024/03/26 08:50:09;;;;;;;2.40;1.00;;;;;;;8.84;72.58;99881.83;111068;1234;71665;-65
2024/03/26 08:52:36;;;;;;;3.00;1.10;;;;;;;8.95;72.30;99877.55;111047;1232;61403;-65
2024/03/26 08:55:04;;;;;;;2.90;1.20;;;;;;;9.00;69.83;99880.75;111007;1235;61950;-64
2024/03/26 08:57:31;;;;;;;2.90;1.20;;;;;;;9.00;68.18;99880.81;111032;1235;76742;-62
2024/03/26 08:59:57;;;;;;;1.70;0.90;;;;;;;9.02;68.14;99888.65;111032;1236;72756;-65
2024/03/26 09:02:24;;;;;;;2.50;1.10;;;;;;;9.02;67.14;99887.26;111028;1233;72634;-63
2024/03/26 09:04:51;;;;;;;3.70;1.20;;;;;;;9.02;67.33;99883.53;111002;1235;61849;-64
2024/03/26 09:07:20;;;;;;;2.20;0.90;;;;;;;9.06;67.57;99886.89;111090;1233;61882;-63
2024/03/26 09:09:47;;;;;;;2.00;0.80;;;;;;;9.16;67.44;99888.58;111205;1233;75240;-63
2024/03/26 09:12:14;;;;;;;2.20;0.80;;;;;;;9.29;67.08;99890.45;111130;1236;72851;-62
2024/03/26 09:14:41;;;;;;;2.90;0.90;;;;;;;9.42;66.38;99893.57;110972;1233;73646;-63
2024/03/26 09:17:08;;;;;;;1.60;0.80;;;;;;;9.54;65.78;99894.91;111036;1234;62022;-62
2024/03/26 09:19:35;;;;;;;2.50;0.90;;;;;;;9.66;65.35;99893.58;111075;1235;62020;-64
2024/03/26 09:22:02;;;;;;;2.90;1.30;;;;;;;9.81;64.45;99889.20;111127;1234;74009;-64
2024/03/26 09:24:29;;;;;;;4.70;1.70;;;;;;;9.96;63.87;99888.22;111093;1235;72717;-63
2024/03/26 09:27:10;;;;;;;3.40;1.20;;;;;;;10.14;62.98;99893.73;110953;1234;72411;-63
2024/03/26 09:29:39;;;;;;;3.30;1.30;;;;;;;10.21;62.08;99891.33;111052;1234;61959;-63
2024/03/26 09:32:09;;;;;;;1.90;0.90;;;;;;;10.24;61.71;99895.86;111086;1232;59937;-63
2024/03/26 09:34:36;;;;;;;3.10;1.10;;;;;;;10.29;60.33;99898.02;111033;1233;74207;-63
2024/03/26 09:37:03;;;;;;;3.10;0.90;;;;;;;10.29;58.94;99889.52;111013;1236;72721;-64
2024/03/26 09:39:31;;;;;;;2.60;0.90;;;;;;;10.28;59.12;99894.27;111007;1233;74202;-63
2024/03/26 09:41:58;;;;;;;2.60;1.00;;;;;;;10.29;58.68;99897.95;111152;1235;61923;-62
2024/03/26 09:44:25;;;;;;;2.40;0.90;;;;;;;10.30;57.74;99898.92;111046;1233;61911;-63
2024/03/26 09:46:52;;;;;;;2.00;0.70;;;;;;;10.31;56.77;99896.35;110975;1234;76412;-64
2024/03/26 09:49:19;;;;;;;3.20;0.80;;;;;;;10.29;56.62;99895.92;110936;1238;71429;-63
2024/03/26 09:51:46;;;;;;;2.60;0.80;;;;;;;10.33;56.35;99895.37;111071;1234;71341;-63
2024/03/26 09:54:13;;;;;;;2.70;0.70;;;;;;;10.39;56.01;99903.38;111091;1233;62177;-62
2024/03/26 09:56:41;;;;;;;1.40;0.80;;;;;;;10.49;56.31;99903.40;111042;1234;62125;-63
2024/03/26 09:59:08;;;;;;;3.60;1.00;;;;;;;10.63;56.12;99895.66;111039;1237;73465;-63
2024/03/26 10:01:35;;;;;;;2.80;1.00;;;;;;;10.77;55.34;99897.30;110874;1234;72566;-62
2024/03/26 10:04:02;;;;;;;2.30;1.00;;;;;;;10.87;54.52;99898.23;110803;1238;72388;-64
2024/03/26 10:06:29;;;;;;;1.90;0.90;;;;;;;10.93;53.86;99901.55;110999;1233;61991;-64
2024/03/26 10:09:00;;;;;;;2.30;0.90;;;;;;;10.98;53.34;99898.77;110869;1233;61924;-63
2024/03/26 10:11:27;;;;;;;2.10;0.70;;;;;;;11.11;53.01;99908.05;111004;1234;75558;-63
2024/03/26 10:13:55;;;;;;;2.10;0.90;;;;;;;11.14;51.05;99898.89;110987;1234;72414;-63
2024/03/26 10:16:22;;;;;;;3.70;0.70;;;;;;;11.14;50.77;99902.46;111043;1234;73770;-64
2024/03/26 10:18:49;;;;;;;1.40;0.60;;;;;;;11.19;50.09;99911.10;111049;1237;61851;-63
2024/03/26 10:21:16;;;;;;;2.30;0.90;;;;;;;11.22;49.64;99908.34;111094;1233;61038;-65
2024/03/26 10:23:43;;;;;;;3.00;1.00;;;;;;;11.22;50.02;99906.41;111086;1234;77326;-64
2024/03/26 10:26:10;;;;;;;1.80;0.70;;;;;;;11.28;50.47;99897.78;111032;1236;72609;-63
2024/03/26 10:28:37;;;;;;;2.20;0.90;;;;;;;11.34;49.62;99905.55;111007;1233;73870;-63
2024/03/26 10:31:04;;;;;;;2.60;0.90;;;;;;;11.34;49.52;99898.02;111046;1235;61898;-65
2024/03/26 10:33:31;;;;;;;2.50;1.10;;;;;;;11.40;50.11;99892.72;110992;1236;61891;-63
2024/03/26 10:35:58;;;;;;;1.90;0.80;;;;;;;11.51;49.81;99899.11;110804;1235;75652;-65
2024/03/26 10:38:26;;;;;;;2.40;1.00;;;;;;;11.57;49.68;99906.55;110781;1236;73986;-64
2024/03/26 10:40:59;;;;;;;2.90;1.00;;;;;;;11.68;49.53;99907.70;110965;1235;72718;-64
2024/03/26 10:43:26;;;;;;;2.10;0.80;;;;;;;11.74;48.75;99909.31;111095;1233;61840;-64
2024/03/26 10:45:53;;;;;;;1.80;0.80;;;;;;;11.68;48.06;99912.41;111110;1234;61418;-63
2024/03/26 10:48:34;;;;;;;2.20;0.90;;;;;;;11.58;48.50;99913.88;111071;1235;75791;-65
2024/03/26 10:51:05;;;;;;;2.70;0.90;;;;;;;11.54;48.63;99916.75;111003;1237;71493;-64
2024/03/26 10:53:32;;;;;;;2.00;0.90;;;;;;;11.47;48.53;99916.20;110871;1238;72635;-64
2024/03/26 10:56:00;;;;;;;2.90;1.20;;;;;;;11.37;48.29;99911.99;111018;1233;62094;-64
2024/03/26 10:58:27;;;;;;;3.10;1.20;;;;;;;11.34;48.32;99923.30;110889;1233;61832;-64
2024/03/26 11:00:53;;;;;;;2.80;0.80;;;;;;;11.40;48.53;99913.59;111043;1233;75502;-65
2024/03/26 11:03:20;;;;;;;2.80;1.00;;;;;;;11.56;48.16;99911.60;110841;1234;73784;-64
2024/03/26 11:05:49;;;;;;;3.40;0.90;;;;;;;11.71;47.87;99913.62;111006;1237;72254;-64
2024/03/26 11:08:19;;;;;;;2.20;0.80;;;;;;;11.81;47.06;99920.23;110867;1233;62011;-64
2024/03/26 11:11:06;;;;;;;2.10;0.70;;;;;;;11.78;46.80;99919.19;111041;1234;60917;-64
2024/03/26 11:13:35;;;;;;;2.40;0.90;;;;;;;11.78;47.44;99922.66;110989;1234;75706;-63
2024/03/26 11:16:03;;;;;;;5.00;1.40;;;;;;;11.83;48.21;99924.93;111059;1234;72804;-64
2024/03/26 11:18:34;;;;;;;3.40;1.30;;;;;;;11.89;49.03;99929.55;110970;1234;73143;-63
2024/03/26 11:21:08;;;;;;;3.50;1.20;;;;;;;11.93;49.03;99932.09;111053;1233;61168;-63
2024/03/26 11:23:42;;;;;;;3.20;1.20;;;;;;;11.90;49.18;99930.30;111010;1233;61920;-63
2024/03/26 11:26:22;;;;;;;3.60;1.20;;;;;;;11.82;49.77;99930.44;111079;1236;75485;-65
2024/03/26 11:28:49;;;;;;;4.50;1.50;;;;;;;11.83;49.64;99929.69;111000;1234;71424;-64